AirNav   ProFlight Series 2 Aviation Headset
 
 1042 users online  

8PN8 Rorer Group Heliport
Fort Washington, Pennsylvania, USA

GOING TO FORT WASHINGTON?


FAA INFORMATION EFFECTIVE 18 JUNE 2020

Location

FAA Identifier: 8PN8
Lat/Long: 40-08-30.3940N 075-11-18.6310W
40-08.506567N 075-11.310517W
40.1417761,-75.1885086
(estimated)
Elevation: 182 ft. / 55 m (estimated)
Variation: 11W (1985)
From city: 1 mile E of FORT WASHINGTON, PA
Time zone: UTC -4 (UTC -5 during Standard Time)
Zip code: 19034

Heliport Operations

Heliport use: Private use. Permission required prior to landing
Activation date: 05/1978
Control tower: no
ARTCC: NEW YORK CENTER
FSS: WILLIAMSPORT FLIGHT SERVICE STATION
Attendance: MON-FRI 0700-1900
Wind indicator: yes
Segmented circle: no
Lights: ACTVT HELI LGTS - 131.95.

Heliport Communications

WX AWOS-3 at LOM (4 nm W): 118.925 (215-646-1068)
WX ASOS at PNE (9 nm SE): 121.15 (215-677-0146)
WX ASOS at DYL (12 nm N): 118.875 (215-345-0392)
WX AWOS-3 at CKZ (16 nm N): 126.325 (215-257-7291)
WX ASOS at PHL (16 nm S): PHONE 215-492-9617
WX ASOS at PTW (18 nm W): 119.425 (610-495-0823)
WX ASOS at TTN (19 nm NE): 126.775 (609-538-8690)
WX AWOS-3 at UKT (20 nm NW): 119.475 (215-538-7610)
WX ASOS at VAY (20 nm SE): 119.325 (609-267-1176)
  • MULTICOM FREQ 131.95

Nearby radio navigation aids

VOR radial/distance  VOR name  Freq  Var
ARDr253/14.5YARDLEY VOR/DME108.2010W
PTWr115/17.7POTTSTOWN VORTAC116.5009W
MXEr068/25.9MODENA VORTAC113.2009W
GXUr298/28.3MC GUIRE VORTAC110.6012W
OODr020/30.8WOODSTOWN VORTAC112.8010W
RBVr273/32.0ROBBINSVILLE VORTAC113.8010W
SBJr228/33.4SOLBERG VOR/DME112.9010W
DQOr045/33.8DUPONT VORTAC114.0010W
ETXr148/34.8EAST TEXAS VOR/DME110.2009W
FJCr171/37.1ALLENTOWN VORTAC117.5010W
VCNr354/37.7CEDAR LAKE VOR/DME115.2010W
CYNr309/39.9COYLE VORTAC113.4010W

 
NDB name  Hdg/Dist  Freq  Var  ID
AMBLER090/4.527512WING .. -. --.
LAKEHURST289/39.639611WNEL -. . .-..

Heliport Services

Runway Information

Helipad H1

Dimensions: 100 x 60 ft. / 30 x 18 m
Surface: asphalt, in fair condition
Runway edge lights: PERI
Latitude: 40-08.506567N
Longitude: 075-11.310517W
Elevation: 182.0 ft.
Traffic pattern: leftleft
Markings: none, in fair condition

Heliport Ownership and Management from official FAA records

Ownership: Privately-owned
Owner: RHONE-POULENC RORER
500 ARCOLA RD
COLLEGEVILLE, PA 19426
Phone 215-454-8620
Manager: GARY A. DIVINCENZO
500 ARCOLA RD
COLLEGEVILLE, PA 19426
Phone 215-454-8620

Additional Remarks

A52-H1 40 FT PLINES 300 FT SW; 30 FT BLDGS 500 FT NW.
FOR CD CTC PHILADELPHIA APCH AT 800-354-9884.

Instrument Procedures

There are no published instrument procedures at 8PN8.

Some nearby airports with instrument procedures:

KLOM - Wings Field Airport (4 nm W)
KPNE - Northeast Philadelphia Airport (9 nm SE)
N10 - Perkiomen Valley Airport (12 nm W)
KDYL - Doylestown Airport (12 nm N)
KCKZ - Pennridge Airport (16 nm N)
KPHL - Philadelphia International Airport (16 nm S)
KPTW - Heritage Field Airport (18 nm W)
KTTN - Trenton Mercer Airport (19 nm NE)
KUKT - Quakertown Airport (20 nm NW)
KVAY - South Jersey Regional Airport (20 nm SE)
 
Loc | Ops | Rwys | IFR | FBO | Links
Com | Nav | Svcs | Stats | Notes
Area around 8PN8 (Rorer Group Heliport)
 
Road maps at: MapQuest Bing Google
 
Aerial photo
No photo
 
Sectional chart

 
Airport distance calculator
Flying to Rorer Group Heliport? Find the distance to fly.

From to 8PN8

Sunrise and sunset
Times for 06-Jul-2020
 Local
(UTC-4)
 Zulu
(UTC)
Morning civil twilight05:0709:07
Sunrise05:3909:39
Sunset20:3200:32
Evening civil twilight21:0401:04

Current date and time
Zulu (UTC)  07-Jul-2020 00:00:02
Local (UTC-4)  06-Jul-2020 20:00:02
 
METAR
KLOM 
4nm W 
062335Z AUTO 00000KT 10SM SCT050 SCT065 SCT120 21/19 A3006 RMK AO2 P0003 T02090193
KPNE 
9nm SE 
062354Z AUTO 10SM CLR 21/18 A3007 RMK AO2 SLP180 60121 T02110183 10233 20194 50006
KDYL 
12nm N 
062354Z AUTO 00000KT 10SM -RA FEW065 SCT095 BKN120 21/19 A3007 RMK AO2 RAE09B37 SLP176 P0000 60093 T02110189 10300 20206 53015
KCKZ 
16nm N 
062335Z AUTO 00000KT 8SM VCTS -RA FEW040 SCT048 BKN060 20/20 A3011 RMK AO2 LTG DSNT S-W P0001
KPHL 
17nm S 
062354Z 17005KT 10SM FEW055 BKN140 OVC250 22/19 A3004 RMK AO2 LTG DSNT S AND W RAB17E36 TSE07 SLP173 CB DSNT S MOV SE P0000 60021 T02170194 10328 20206 58002
KPTW 
17nm W 
062354Z AUTO 00000KT 6SM -RA BR BKN110 21/19 A3010 RMK AO2 LTG DSNT SW AND W RAB13 SLP189 P0002 60069 T02060189 10256 20200 53023
KTTN 
19nm NE 
ASOS 133.70 609-538-8690
062353Z 22006KT 10SM CLR 22/18 A3005 RMK AO2 RAE13 SLP170 P0000 60000 T02170178 10256 20217 53003
KUKT 
20nm NW 
062355Z AUTO 16005KT 5SM BR SCT002 SCT020 BKN037 21/21 A3008 RMK A01 P0005
TAF
KPNE 
9nm SE 
062034Z 0621/0718 21010KT 6SM -SHRA VCTS SCT020CB BKN090 TEMPO 0621/0623 4SM -SHRA BR BKN025 OVC040 FM062300 VRB04KT P6SM VCSH BKN040 BKN100 FM070200 VRB02KT P6SM SCT100 FM070700 VRB02KT 4SM BR SCT010
KPHL 
17nm S 
062041Z 0621/0724 05010KT 6SM SHRA VCTS SCT025CB OVC080 TEMPO 0621/0623 2SM +TSRA BKN025CB FM062300 16007KT P6SM BKN050 BKN200 FM070200 VRB02KT P6SM SCT200 FM070600 VRB02KT 4SM BR SCT010 FM071500 18008KT P6SM SCT250
KTTN 
19nm NE 
062046Z 0621/0718 12012KT 6SM -SHRA SCT025 BKN100 TEMPO 0621/0623 4SM SHRA BKN025 OVC040 FM062300 13006KT P6SM BKN040 BKN150 FM070200 VRB03KT P6SM SCT080 FM070700 VRB02KT 4SM BR SCT012 FM071300 18005KT P6SM SCT200
NOTAMs
Click for the latest NOTAMs
NOTAMs are issued by the DoD/FAA and will open in a separate window not controlled by AirNav.

 

 
 

Would you like to see your business listed on this page?

 If your business provides an interesting product or service to pilots, flight crews, aircraft, or users of the Rorer Group Heliport, you should consider listing it here.  To start the listing process, click on the button below
 
Add a business
 

Other Pages about Rorer Group Heliport

Update a link
 
Copyright © AirNav, LLC. All rights reserved. Privacy Policy  Contact